sensor_id;sensor_type;location;lat;lon;timestamp;pressure;altitude;pressure_sealevel;temperature;humidity
26697;BME280;14312;52.614;13.496;2023-02-28T00:01:44;102487.47;;;4.23;59.77
26697;BME280;14312;52.614;13.496;2023-02-28T00:04:30;102494.53;;;4.22;59.81
26697;BME280;14312;52.614;13.496;2023-02-28T00:07:16;102495.00;;;4.18;59.92
26697;BME280;14312;52.614;13.496;2023-02-28T00:10:04;102498.75;;;4.15;59.94
26697;BME280;14312;52.614;13.496;2023-02-28T00:12:53;102497.41;;;4.11;59.93
26697;BME280;14312;52.614;13.496;2023-02-28T00:15:39;102491.59;;;4.08;59.97
26697;BME280;14312;52.614;13.496;2023-02-28T00:18:25;102487.78;;;4.02;59.92
26697;BME280;14312;52.614;13.496;2023-02-28T00:21:11;102500.28;;;4.00;60.38
26697;BME280;14312;52.614;13.496;2023-02-28T00:23:57;102498.94;;;3.96;59.92
26697;BME280;14312;52.614;13.496;2023-02-28T00:26:43;102493.94;;;3.93;60.17
26697;BME280;14312;52.614;13.496;2023-02-28T00:29:29;102499.53;;;3.90;60.11
26697;BME280;14312;52.614;13.496;2023-02-28T00:32:15;102501.47;;;3.88;60.32
26697;BME280;14312;52.614;13.496;2023-02-28T00:35:02;102501.75;;;3.85;60.24
26697;BME280;14312;52.614;13.496;2023-02-28T00:37:48;102509.84;;;3.83;60.44
26697;BME280;14312;52.614;13.496;2023-02-28T00:40:35;102510.97;;;3.81;60.51
26697;BME280;14312;52.614;13.496;2023-02-28T00:43:21;102510.97;;;3.81;60.63
26697;BME280;14312;52.614;13.496;2023-02-28T00:46:07;102505.69;;;3.81;60.63
26697;BME280;14312;52.614;13.496;2023-02-28T00:48:54;102498.75;;;3.80;60.71
26697;BME280;14312;52.614;13.496;2023-02-28T00:51:40;102501.41;;;3.80;60.87
26697;BME280;14312;52.614;13.496;2023-02-28T00:54:26;102509.16;;;3.81;60.87
26697;BME280;14312;52.614;13.496;2023-02-28T00:57:12;102506.38;;;3.83;60.55
26697;BME280;14312;52.614;13.496;2023-02-28T00:59:58;102509.69;;;3.85;60.91
26697;BME280;14312;52.614;13.496;2023-02-28T01:02:44;102503.75;;;3.83;60.64
26697;BME280;14312;52.614;13.496;2023-02-28T01:05:29;102516.38;;;3.79;60.27
26697;BME280;14312;52.614;13.496;2023-02-28T01:08:16;102507.97;;;3.76;60.95
26697;BME280;14312;52.614;13.496;2023-02-28T01:11:12;102516.44;;;3.70;60.83
26697;BME280;14312;52.614;13.496;2023-02-28T01:13:58;102506.34;;;3.65;60.70
26697;BME280;14312;52.614;13.496;2023-02-28T01:16:44;102505.81;;;3.62;61.01
26697;BME280;14312;52.614;13.496;2023-02-28T01:19:30;102509.72;;;3.58;60.89
26697;BME280;14312;52.614;13.496;2023-02-28T01:22:16;102506.56;;;3.54;60.79
26697;BME280;14312;52.614;13.496;2023-02-28T01:25:02;102506.69;;;3.52;61.12
26697;BME280;14312;52.614;13.496;2023-02-28T01:27:48;102501.72;;;3.49;61.07
26697;BME280;14312;52.614;13.496;2023-02-28T01:30:34;102497.59;;;3.47;61.13
26697;BME280;14312;52.614;13.496;2023-02-28T01:33:20;102497.03;;;3.43;61.30
26697;BME280;14312;52.614;13.496;2023-02-28T01:36:32;102501.63;;;3.41;61.73
26697;BME280;14312;52.614;13.496;2023-02-28T01:39:18;102495.69;;;3.39;61.34
26697;BME280;14312;52.614;13.496;2023-02-28T01:42:04;102490.69;;;3.36;61.50
26697;BME280;14312;52.614;13.496;2023-02-28T01:44:58;102500.53;;;3.34;61.46
26697;BME280;14312;52.614;13.496;2023-02-28T01:47:48;102492.63;;;3.34;61.54
26697;BME280;14312;52.614;13.496;2023-02-28T01:50:39;102492.63;;;3.34;61.64
26697;BME280;14312;52.614;13.496;2023-02-28T01:53:32;102491.00;;;3.33;61.56
26697;BME280;14312;52.614;13.496;2023-02-28T01:56:24;102491.28;;;3.30;61.55
26697;BME280;14312;52.614;13.496;2023-02-28T01:59:22;102490.75;;;3.27;61.51
26697;BME280;14312;52.614;13.496;2023-02-28T02:02:09;102487.44;;;3.25;61.09
26697;BME280;14312;52.614;13.496;2023-02-28T02:04:59;102487.84;;;3.20;61.53
26697;BME280;14312;52.614;13.496;2023-02-28T02:07:51;102485.53;;;3.17;61.56
26697;BME280;14312;52.614;13.496;2023-02-28T02:10:46;102484.97;;;3.13;61.96
26697;BME280;14312;52.614;13.496;2023-02-28T02:14:07;102488.88;;;3.09;61.55
26697;BME280;14312;52.614;13.496;2023-02-28T02:16:54;102485.03;;;3.04;61.49
26697;BME280;14312;52.614;13.496;2023-02-28T02:20:13;102488.09;;;2.99;61.83
26697;BME280;14312;52.614;13.496;2023-02-28T02:25:54;102485.50;;;2.90;61.71
26697;BME280;14312;52.614;13.496;2023-02-28T02:32:01;102487.31;;;2.80;61.86
26697;BME280;14312;52.614;13.496;2023-02-28T02:40:40;102493.75;;;2.67;62.15
26697;BME280;14312;52.614;13.496;2023-02-28T02:43:34;102493.19;;;2.64;62.15
26697;BME280;14312;52.614;13.496;2023-02-28T02:46:34;102490.72;;;2.62;62.23
26697;BME280;14312;52.614;13.496;2023-02-28T02:49:26;102490.97;;;2.59;61.85
26697;BME280;14312;52.614;13.496;2023-02-28T02:52:17;102490.41;;;2.56;62.19
26697;BME280;14312;52.614;13.496;2023-02-28T02:55:05;102495.97;;;2.53;61.95
26697;BME280;14312;52.614;13.496;2023-02-28T02:58:04;102484.91;;;2.49;62.29
26697;BME280;14312;52.614;13.496;2023-02-28T03:00:54;102490.47;;;2.46;62.01
26697;BME280;14312;52.614;13.496;2023-02-28T03:03:42;102493.50;;;2.42;62.29
26697;BME280;14312;52.614;13.496;2023-02-28T03:06:29;102489.38;;;2.39;61.99
26697;BME280;14312;52.614;13.496;2023-02-28T03:09:14;102488.78;;;2.35;62.02
26697;BME280;14312;52.614;13.496;2023-02-28T03:12:01;102488.25;;;2.32;62.19
26697;BME280;14312;52.614;13.496;2023-02-28T03:15:04;102496.41;;;2.29;62.30
26697;BME280;14312;52.614;13.496;2023-02-28T03:27:15;102501.84;;;2.18;62.67
26697;BME280;14312;52.614;13.496;2023-02-28T03:30:06;102511.53;;;2.17;62.61
26697;BME280;14312;52.614;13.496;2023-02-28T03:33:09;102506.41;;;2.16;62.76
26697;BME280;14312;52.614;13.496;2023-02-28T03:36:05;102508.31;;;2.14;62.53
26697;BME280;14312;52.614;13.496;2023-02-28T03:38:58;102510.28;;;2.12;62.30
26697;BME280;14312;52.614;13.496;2023-02-28T03:41:54;102502.66;;;2.09;62.50
26697;BME280;14312;52.614;13.496;2023-02-28T03:44:48;102502.78;;;2.07;62.29
26697;BME280;14312;52.614;13.496;2023-02-28T03:50:44;102505.13;;;2.01;62.44
26697;BME280;14312;52.614;13.496;2023-02-28T03:53:35;102501.84;;;1.99;62.65
26697;BME280;14312;52.614;13.496;2023-02-28T03:56:32;102503.06;;;1.94;62.79
26697;BME280;14312;52.614;13.496;2023-02-28T03:59:30;102507.63;;;1.92;62.70
26697;BME280;14312;52.614;13.496;2023-02-28T04:02:18;102507.78;;;1.91;62.23
26697;BME280;14312;52.614;13.496;2023-02-28T04:05:04;102507.09;;;1.89;62.87
26697;BME280;14312;52.614;13.496;2023-02-28T04:07:51;102509.84;;;1.87;62.96
26697;BME280;14312;52.614;13.496;2023-02-28T04:10:37;102511.75;;;1.85;62.87
26697;BME280;14312;52.614;13.496;2023-02-28T04:13:23;102511.75;;;1.85;62.86
26697;BME280;14312;52.614;13.496;2023-02-28T04:16:10;102504.88;;;1.84;63.20
26697;BME280;14312;52.614;13.496;2023-02-28T04:18:58;102506.78;;;1.82;62.71
26697;BME280;14312;52.614;13.496;2023-02-28T04:21:49;102515.38;;;1.84;62.74
26697;BME280;14312;52.614;13.496;2023-02-28T04:24:35;102513.72;;;1.83;62.95
26697;BME280;14312;52.614;13.496;2023-02-28T04:27:21;102505.13;;;1.81;63.09
26697;BME280;14312;52.614;13.496;2023-02-28T04:30:08;102513.16;;;1.80;62.73
26697;BME280;14312;52.614;13.496;2023-02-28T04:32:54;102508.19;;;1.77;62.67
26697;BME280;14312;52.614;13.496;2023-02-28T04:35:40;102524.19;;;1.74;62.74
26697;BME280;14312;52.614;13.496;2023-02-28T04:38:26;102523.38;;;1.73;62.75
26697;BME280;14312;52.614;13.496;2023-02-28T04:41:13;102517.56;;;1.70;62.71
26697;BME280;14312;52.614;13.496;2023-02-28T04:43:59;102524.75;;;1.68;62.54
26697;BME280;14312;52.614;13.496;2023-02-28T04:46:45;102513.00;;;1.62;62.60
26697;BME280;14312;52.614;13.496;2023-02-28T04:49:31;102519.19;;;1.61;62.53
26697;BME280;14312;52.614;13.496;2023-02-28T04:52:17;102517.78;;;1.57;62.45
26697;BME280;14312;52.614;13.496;2023-02-28T04:55:03;102519.88;;;1.53;62.86
26697;BME280;14312;52.614;13.496;2023-02-28T04:57:49;102516.66;;;1.50;62.67
26697;BME280;14312;52.614;13.496;2023-02-28T05:00:35;102526.50;;;1.48;62.69
26697;BME280;14312;52.614;13.496;2023-02-28T05:03:21;102522.47;;;1.44;62.75
26697;BME280;14312;52.614;13.496;2023-02-28T05:06:09;102527.72;;;1.44;62.95
26697;BME280;14312;52.614;13.496;2023-02-28T05:08:56;102532.28;;;1.42;63.10
26697;BME280;14312;52.614;13.496;2023-02-28T05:11:42;102532.53;;;1.39;62.75
26697;BME280;14312;52.614;13.496;2023-02-28T05:14:28;102537.09;;;1.37;62.79
26697;BME280;14312;52.614;13.496;2023-02-28T05:17:14;102534.59;;;1.35;62.85
26697;BME280;14312;52.614;13.496;2023-02-28T05:20:00;102541.78;;;1.33;63.29
26697;BME280;14312;52.614;13.496;2023-02-28T05:22:46;102536.78;;;1.30;63.16
26697;BME280;14312;52.614;13.496;2023-02-28T05:25:32;102542.88;;;1.31;63.54
26697;BME280;14312;52.614;13.496;2023-02-28T05:28:18;102542.03;;;1.30;63.42
26697;BME280;14312;52.614;13.496;2023-02-28T05:31:04;102534.28;;;1.29;63.14
26697;BME280;14312;52.614;13.496;2023-02-28T05:33:51;102542.31;;;1.27;63.09
26697;BME280;14312;52.614;13.496;2023-02-28T05:36:37;102553.66;;;1.28;63.11
26697;BME280;14312;52.614;13.496;2023-02-28T05:39:23;102546.75;;;1.27;63.35
26697;BME280;14312;52.614;13.496;2023-02-28T05:42:09;102547.81;;;1.24;63.41
26697;BME280;14312;52.614;13.496;2023-02-28T05:44:55;102560.13;;;1.24;63.42
26697;BME280;14312;52.614;13.496;2023-02-28T05:47:41;102541.19;;;1.20;63.15
26697;BME280;14312;52.614;13.496;2023-02-28T05:50:27;102555.94;;;1.21;63.17
26697;BME280;14312;52.614;13.496;2023-02-28T05:53:13;102556.09;;;1.20;63.49
26697;BME280;14312;52.614;13.496;2023-02-28T05:55:59;102556.94;;;1.20;63.57
26697;BME280;14312;52.614;13.496;2023-02-28T05:58:45;102559.41;;;1.22;63.69
26697;BME280;14312;52.614;13.496;2023-02-28T06:01:37;102550.84;;;1.20;63.52
26697;BME280;14312;52.614;13.496;2023-02-28T06:04:23;102555.81;;;1.23;63.75
26697;BME280;14312;52.614;13.496;2023-02-28T06:07:09;102554.16;;;1.22;63.46
26697;BME280;14312;52.614;13.496;2023-02-28T06:09:55;102565.38;;;1.24;63.53
26697;BME280;14312;52.614;13.496;2023-02-28T06:12:41;102565.25;;;1.25;63.50
26697;BME280;14312;52.614;13.496;2023-02-28T06:15:28;102552.00;;;1.27;63.91
26697;BME280;14312;52.614;13.496;2023-02-28T06:18:14;102564.97;;;1.28;63.53
26697;BME280;14312;52.614;13.496;2023-02-28T06:21:00;102562.22;;;1.30;63.85
26697;BME280;14312;52.614;13.496;2023-02-28T06:23:46;102568.28;;;1.30;64.13
26697;BME280;14312;52.614;13.496;2023-02-28T06:26:32;102570.53;;;1.35;63.87
26697;BME280;14312;52.614;13.496;2023-02-28T06:29:18;102574.56;;;1.39;64.11
26697;BME280;14312;52.614;13.496;2023-02-28T06:32:04;102574.16;;;1.43;63.36
26697;BME280;14312;52.614;13.496;2023-02-28T06:34:50;102579.16;;;1.46;63.97
26697;BME280;14312;52.614;13.496;2023-02-28T06:37:36;102580.69;;;1.49;64.05
26697;BME280;14312;52.614;13.496;2023-02-28T06:40:22;102589.97;;;1.53;63.90
26697;BME280;14312;52.614;13.496;2023-02-28T06:43:08;102587.88;;;1.56;63.82
26697;BME280;14312;52.614;13.496;2023-02-28T06:45:55;102591.09;;;1.60;64.09
26697;BME280;14312;52.614;13.496;2023-02-28T06:48:45;102588.06;;;1.65;64.30
26697;BME280;14312;52.614;13.496;2023-02-28T06:51:31;102596.22;;;1.71;64.12
26697;BME280;14312;52.614;13.496;2023-02-28T06:54:17;102598.59;;;1.74;63.93
26697;BME280;14312;52.614;13.496;2023-02-28T06:57:03;102595.56;;;1.79;64.11
26697;BME280;14312;52.614;13.496;2023-02-28T06:59:49;102604.75;;;1.84;64.42
26697;BME280;14312;52.614;13.496;2023-02-28T07:02:36;102600.59;;;1.91;64.41
26697;BME280;14312;52.614;13.496;2023-02-28T07:05:23;102603.38;;;2.00;64.13
26697;BME280;14312;52.614;13.496;2023-02-28T07:08:09;102599.22;;;2.07;64.07
26697;BME280;14312;52.614;13.496;2023-02-28T07:10:55;102595.09;;;2.14;64.05
26697;BME280;14312;52.614;13.496;2023-02-28T07:13:41;102590.94;;;2.21;64.40
26697;BME280;14312;52.614;13.496;2023-02-28T07:16:27;102598.97;;;2.29;64.29
26697;BME280;14312;52.614;13.496;2023-02-28T07:19:13;102604.25;;;2.39;64.17
26697;BME280;14312;52.614;13.496;2023-02-28T07:21:59;102603.72;;;2.45;64.11
26697;BME280;14312;52.614;13.496;2023-02-28T07:24:46;102606.47;;;2.53;64.17
26697;BME280;14312;52.614;13.496;2023-02-28T07:27:32;102610.09;;;2.61;64.27
26697;BME280;14312;52.614;13.496;2023-02-28T07:30:20;102605.94;;;2.68;64.31
26697;BME280;14312;52.614;13.496;2023-02-28T07:33:06;102611.47;;;2.75;64.38
26697;BME280;14312;52.614;13.496;2023-02-28T07:35:51;102604.53;;;2.84;64.53
26697;BME280;14312;52.614;13.496;2023-02-28T07:38:37;102605.34;;;2.94;65.17
26697;BME280;14312;52.614;13.496;2023-02-28T07:41:23;102609.19;;;3.09;65.51
26697;BME280;14312;52.614;13.496;2023-02-28T07:44:13;102612.06;;;3.25;65.70
26697;BME280;14312;52.614;13.496;2023-02-28T07:46:59;102614.63;;;3.44;66.08
26697;BME280;14312;52.614;13.496;2023-02-28T07:49:45;102618.03;;;3.64;66.24
26697;BME280;14312;52.614;13.496;2023-02-28T07:52:31;102608.22;;;3.84;66.34
26697;BME280;14312;52.614;13.496;2023-02-28T07:55:17;102615.44;;;4.09;66.43
26697;BME280;14312;52.614;13.496;2023-02-28T07:58:03;102611.09;;;4.36;66.67
26697;BME280;14312;52.614;13.496;2023-02-28T08:00:50;102605.56;;;4.64;66.68
26697;BME280;14312;52.614;13.496;2023-02-28T08:03:37;102606.63;;;4.97;66.44
26697;BME280;14312;52.614;13.496;2023-02-28T08:06:24;102608.00;;;5.27;66.62
26697;BME280;14312;52.614;13.496;2023-02-28T08:09:11;102600.41;;;5.58;66.91
26697;BME280;14312;52.614;13.496;2023-02-28T08:11:58;102612.78;;;5.92;66.58
26697;BME280;14312;52.614;13.496;2023-02-28T08:14:44;102605.94;;;6.23;66.96
26697;BME280;14312;52.614;13.496;2023-02-28T08:17:30;102609.59;;;6.54;66.83
26697;BME280;14312;52.614;13.496;2023-02-28T08:20:16;102608.28;;;6.83;65.97
26697;BME280;14312;52.614;13.496;2023-02-28T08:23:02;102601.63;;;7.11;65.72
26697;BME280;14312;52.614;13.496;2023-02-28T08:25:55;102606.38;;;7.40;64.90
26697;BME280;14312;52.614;13.496;2023-02-28T08:28:41;102605.78;;;7.69;65.89
26697;BME280;14312;52.614;13.496;2023-02-28T08:31:27;102605.97;;;7.98;65.24
26697;BME280;14312;52.614;13.496;2023-02-28T08:34:14;102605.84;;;8.31;64.92
26697;BME280;14312;52.614;13.496;2023-02-28T08:37:02;102612.91;;;8.61;64.48
26697;BME280;14312;52.614;13.496;2023-02-28T08:39:48;102609.31;;;8.91;63.97
26697;BME280;14312;52.614;13.496;2023-02-28T08:42:34;102605.72;;;9.22;63.54
26697;BME280;14312;52.614;13.496;2023-02-28T08:45:20;102606.09;;;9.48;63.14
26697;BME280;14312;52.614;13.496;2023-02-28T08:48:06;102605.25;;;9.77;62.68
26697;BME280;14312;52.614;13.496;2023-02-28T08:51:00;102611.34;;;10.07;60.77
26697;BME280;14312;52.614;13.496;2023-02-28T08:53:46;102620.66;;;10.32;61.52
26697;BME280;14312;52.614;13.496;2023-02-28T08:56:34;102617.63;;;10.56;61.03
26697;BME280;14312;52.614;13.496;2023-02-28T08:59:21;102614.53;;;10.81;60.49
26697;BME280;14312;52.614;13.496;2023-02-28T09:02:09;102607.97;;;11.05;59.93
26697;BME280;14312;52.614;13.496;2023-02-28T09:04:57;102610.38;;;11.27;59.26
26697;BME280;14312;52.614;13.496;2023-02-28T09:07:44;102612.56;;;11.52;58.73
26697;BME280;14312;52.614;13.496;2023-02-28T09:10:30;102607.34;;;11.71;58.31
26697;BME280;14312;52.614;13.496;2023-02-28T09:13:16;102609.09;;;11.92;57.95
26697;BME280;14312;52.614;13.496;2023-02-28T09:16:04;102611.66;;;12.13;57.56
26697;BME280;14312;52.614;13.496;2023-02-28T09:18:50;102606.53;;;12.32;57.20
26697;BME280;14312;52.614;13.496;2023-02-28T09:21:36;102610.88;;;12.52;56.71
26697;BME280;14312;52.614;13.496;2023-02-28T09:24:22;102607.63;;;12.70;56.28
26697;BME280;14312;52.614;13.496;2023-02-28T09:27:08;102614.81;;;12.89;55.77
26697;BME280;14312;52.614;13.496;2023-02-28T09:29:54;102604.28;;;13.08;55.15
26697;BME280;14312;52.614;13.496;2023-02-28T09:32:40;102603.91;;;13.24;54.85
26697;BME280;14312;52.614;13.496;2023-02-28T09:35:26;102594.19;;;13.43;54.51
26697;BME280;14312;52.614;13.496;2023-02-28T09:38:12;102609.56;;;13.60;53.57
26697;BME280;14312;52.614;13.496;2023-02-28T09:41:01;102600.03;;;13.78;51.93
26697;BME280;14312;52.614;13.496;2023-02-28T09:43:59;102599.97;;;13.91;49.86
26697;BME280;14312;52.614;13.496;2023-02-28T09:46:50;102599.13;;;13.97;50.82
26697;BME280;14312;52.614;13.496;2023-02-28T09:49:44;102600.78;;;13.98;50.84
26697;BME280;14312;52.614;13.496;2023-02-28T09:52:32;102604.81;;;14.07;51.23
26697;BME280;14312;52.614;13.496;2023-02-28T09:55:31;102606.22;;;14.16;49.25
26697;BME280;14312;52.614;13.496;2023-02-28T09:58:28;102601.81;;;14.28;51.22
26697;BME280;14312;52.614;13.496;2023-02-28T10:07:55;102609.06;;;14.59;48.67
26697;BME280;14312;52.614;13.496;2023-02-28T10:10:50;102615.06;;;14.61;47.43
26697;BME280;14312;52.614;13.496;2023-02-28T10:13:56;102618.09;;;14.65;44.62
26697;BME280;14312;52.614;13.496;2023-02-28T10:16:56;102611.13;;;14.57;45.07
26697;BME280;14312;52.614;13.496;2023-02-28T10:20:04;102612.22;;;14.49;45.06
26697;BME280;14312;52.614;13.496;2023-02-28T10:23:02;102613.75;;;14.39;45.71
26697;BME280;14312;52.614;13.496;2023-02-28T10:26:14;102614.63;;;14.26;44.65
26697;BME280;14312;52.614;13.496;2023-02-28T10:29:02;102614.72;;;14.13;46.52
26697;BME280;14312;52.614;13.496;2023-02-28T10:31:48;102608.59;;;13.93;46.00
26697;BME280;14312;52.614;13.496;2023-02-28T10:34:34;102610.59;;;13.59;45.38
26697;BME280;14312;52.614;13.496;2023-02-28T10:37:20;102609.47;;;13.16;45.49
26697;BME280;14312;52.614;13.496;2023-02-28T10:40:34;102615.66;;;12.70;44.27
26697;BME280;14312;52.614;13.496;2023-02-28T10:43:23;102610.84;;;12.26;46.31
26697;BME280;14312;52.614;13.496;2023-02-28T10:49:06;102607.47;;;11.57;45.46
26697;BME280;14312;52.614;13.496;2023-02-28T10:51:59;102604.63;;;11.30;47.39
26697;BME280;14312;52.614;13.496;2023-02-28T10:54:46;102601.44;;;11.07;47.87
26697;BME280;14312;52.614;13.496;2023-02-28T10:57:37;102603.75;;;10.89;48.06
26697;BME280;14312;52.614;13.496;2023-02-28T11:00:25;102590.91;;;10.71;47.66
26697;BME280;14312;52.614;13.496;2023-02-28T11:03:31;102586.06;;;10.60;46.71
26697;BME280;14312;52.614;13.496;2023-02-28T11:06:21;102590.09;;;10.49;47.94
26697;BME280;14312;52.614;13.496;2023-02-28T11:09:23;102578.91;;;10.39;48.47
26697;BME280;14312;52.614;13.496;2023-02-28T11:12:21;102581.31;;;10.34;46.88
26697;BME280;14312;52.614;13.496;2023-02-28T11:21:00;102577.81;;;10.55;48.64
26697;BME280;14312;52.614;13.496;2023-02-28T11:23:49;102568.19;;;10.82;48.82
26697;BME280;14312;52.614;13.496;2023-02-28T11:26:42;102563.44;;;11.05;48.45
26697;BME280;14312;52.614;13.496;2023-02-28T11:29:31;102566.44;;;11.30;48.34
26697;BME280;14312;52.614;13.496;2023-02-28T11:32:22;102567.03;;;11.60;47.47
26697;BME280;14312;52.614;13.496;2023-02-28T11:37:55;102576.94;;;12.46;47.88
26697;BME280;14312;52.614;13.496;2023-02-28T11:40:49;102572.63;;;12.98;46.67
26697;BME280;14312;52.614;13.496;2023-02-28T11:52:55;102567.56;;;14.62;44.23
26697;BME280;14312;52.614;13.496;2023-02-28T12:02:20;102566.16;;;15.20;42.68
26697;BME280;14312;52.614;13.496;2023-02-28T12:05:26;102564.31;;;15.39;41.58
26697;BME280;14312;52.614;13.496;2023-02-28T12:08:20;102558.28;;;15.44;42.81
26697;BME280;14312;52.614;13.496;2023-02-28T12:14:53;102551.78;;;15.33;41.03
26697;BME280;14312;52.614;13.496;2023-02-28T12:21:05;102540.28;;;15.92;43.54
26697;BME280;14312;52.614;13.496;2023-02-28T12:24:19;102532.59;;;16.37;44.14
26697;BME280;14312;52.614;13.496;2023-02-28T12:27:14;102521.06;;;16.83;42.96
26697;BME280;14312;52.614;13.496;2023-02-28T12:30:16;102519.84;;;17.26;40.85
26697;BME280;14312;52.614;13.496;2023-02-28T12:33:08;102514.81;;;17.58;39.98
26697;BME280;14312;52.614;13.496;2023-02-28T12:35:56;102505.97;;;17.74;38.94
26697;BME280;14312;52.614;13.496;2023-02-28T12:38:53;102499.25;;;17.77;37.99
26697;BME280;14312;52.614;13.496;2023-02-28T12:41:47;102504.81;;;17.70;38.73
26697;BME280;14312;52.614;13.496;2023-02-28T12:47:25;102489.94;;;17.68;40.06
26697;BME280;14312;52.614;13.496;2023-02-28T12:50:12;102488.59;;;17.82;39.79
26697;BME280;14312;52.614;13.496;2023-02-28T12:56:16;102476.91;;;17.93;38.74
26697;BME280;14312;52.614;13.496;2023-02-28T12:59:13;102471.13;;;18.01;37.19
26697;BME280;14312;52.614;13.496;2023-02-28T13:02:10;102468.09;;;18.14;38.29
26697;BME280;14312;52.614;13.496;2023-02-28T13:10:57;102463.63;;;19.18;40.20
26697;BME280;14312;52.614;13.496;2023-02-28T13:13:44;102467.38;;;19.61;39.52
26697;BME280;14312;52.614;13.496;2023-02-28T13:16:54;102461.31;;;20.08;39.19
26697;BME280;14312;52.614;13.496;2023-02-28T13:19:44;102460.81;;;20.43;36.34
26697;BME280;14312;52.614;13.496;2023-02-28T13:22:42;102459.53;;;20.60;34.53
26697;BME280;14312;52.614;13.496;2023-02-28T13:32:18;102446.50;;;20.52;34.11
26697;BME280;14312;52.614;13.496;2023-02-28T13:37:50;102456.03;;;20.23;36.53
26697;BME280;14312;52.614;13.496;2023-02-28T13:40:37;102454.97;;;20.24;36.42
26697;BME280;14312;52.614;13.496;2023-02-28T13:49:35;102451.63;;;20.49;37.09
26697;BME280;14312;52.614;13.496;2023-02-28T13:52:23;102438.19;;;20.69;36.48
26697;BME280;14312;52.614;13.496;2023-02-28T14:04:19;102426.69;;;21.04;33.79
26697;BME280;14312;52.614;13.496;2023-02-28T14:07:21;102430.13;;;20.79;34.42
26697;BME280;14312;52.614;13.496;2023-02-28T14:10:21;102427.56;;;20.57;32.87
26697;BME280;14312;52.614;13.496;2023-02-28T14:16:17;102429.41;;;20.47;34.93
26697;BME280;14312;52.614;13.496;2023-02-28T14:19:25;102430.19;;;20.42;33.14
26697;BME280;14312;52.614;13.496;2023-02-28T14:22:51;102432.41;;;20.50;33.74
26697;BME280;14312;52.614;13.496;2023-02-28T14:31:58;102422.06;;;20.94;33.66
26697;BME280;14312;52.614;13.496;2023-02-28T14:34:58;102428.31;;;21.05;33.37
26697;BME280;14312;52.614;13.496;2023-02-28T14:37:48;102419.19;;;21.16;35.21
26697;BME280;14312;52.614;13.496;2023-02-28T14:40:35;102420.81;;;21.27;35.05
26697;BME280;14312;52.614;13.496;2023-02-28T14:43:28;102426.00;;;21.39;33.93
26697;BME280;14312;52.614;13.496;2023-02-28T14:46:15;102421.41;;;21.49;35.05
26697;BME280;14312;52.614;13.496;2023-02-28T14:49:04;102425.50;;;21.67;34.75
26697;BME280;14312;52.614;13.496;2023-02-28T14:52:23;102419.81;;;21.79;32.79
26697;BME280;14312;52.614;13.496;2023-02-28T14:55:14;102416.56;;;21.92;33.26
26697;BME280;14312;52.614;13.496;2023-02-28T14:58:03;102412.75;;;21.93;33.24
26697;BME280;14312;52.614;13.496;2023-02-28T15:00:54;102407.88;;;21.70;32.94
26697;BME280;14312;52.614;13.496;2023-02-28T15:03:40;102399.97;;;21.43;33.40
26697;BME280;14312;52.614;13.496;2023-02-28T15:06:28;102399.38;;;21.26;33.65
26697;BME280;14312;52.614;13.496;2023-02-28T15:09:18;102405.03;;;21.14;32.85
26697;BME280;14312;52.614;13.496;2023-02-28T15:12:04;102407.75;;;21.09;34.14
26697;BME280;14312;52.614;13.496;2023-02-28T15:14:50;102394.72;;;21.11;34.05
26697;BME280;14312;52.614;13.496;2023-02-28T15:17:36;102396.91;;;21.09;33.78
26697;BME280;14312;52.614;13.496;2023-02-28T15:20:23;102393.59;;;20.97;33.23
26697;BME280;14312;52.614;13.496;2023-02-28T15:23:10;102395.41;;;20.71;32.85
26697;BME280;14312;52.614;13.496;2023-02-28T15:25:57;102394.72;;;20.39;33.40
26697;BME280;14312;52.614;13.496;2023-02-28T15:28:44;102403.44;;;20.14;33.62
26697;BME280;14312;52.614;13.496;2023-02-28T15:31:40;102397.91;;;19.99;32.73
26697;BME280;14312;52.614;13.496;2023-02-28T15:37:45;102393.38;;;19.72;32.15
26697;BME280;14312;52.614;13.496;2023-02-28T15:40:41;102393.81;;;19.59;32.70
26697;BME280;14312;52.614;13.496;2023-02-28T15:43:31;102389.66;;;19.46;34.23
26697;BME280;14312;52.614;13.496;2023-02-28T15:46:19;102391.44;;;19.41;34.44
26697;BME280;14312;52.614;13.496;2023-02-28T15:49:05;102400.00;;;19.33;34.77
26697;BME280;14312;52.614;13.496;2023-02-28T15:51:59;102389.72;;;19.30;34.72
26697;BME280;14312;52.614;13.496;2023-02-28T15:54:46;102403.19;;;19.25;34.39
26697;BME280;14312;52.614;13.496;2023-02-28T15:57:33;102396.03;;;19.13;34.62
26697;BME280;14312;52.614;13.496;2023-02-28T16:00:24;102394.47;;;18.96;34.01
26697;BME280;14312;52.614;13.496;2023-02-28T16:03:25;102403.91;;;18.71;32.85
26697;BME280;14312;52.614;13.496;2023-02-28T16:09:18;102395.47;;;18.13;34.66
26697;BME280;14312;52.614;13.496;2023-02-28T16:12:04;102391.56;;;17.87;34.68
26697;BME280;14312;52.614;13.496;2023-02-28T16:14:52;102397.47;;;17.55;34.65
26697;BME280;14312;52.614;13.496;2023-02-28T16:17:39;102407.59;;;17.20;34.89
26697;BME280;14312;52.614;13.496;2023-02-28T16:20:27;102399.31;;;16.81;34.77
26697;BME280;14312;52.614;13.496;2023-02-28T16:23:13;102395.72;;;16.29;35.08
26697;BME280;14312;52.614;13.496;2023-02-28T16:25:59;102400.91;;;15.66;35.21
26697;BME280;14312;52.614;13.496;2023-02-28T16:28:46;102408.06;;;14.94;35.38
26697;BME280;14312;52.614;13.496;2023-02-28T16:31:35;102408.56;;;14.23;35.66
26697;BME280;14312;52.614;13.496;2023-02-28T16:34:24;102399.03;;;13.53;36.37
26697;BME280;14312;52.614;13.496;2023-02-28T16:37:17;102395.00;;;12.86;36.46
26697;BME280;14312;52.614;13.496;2023-02-28T16:40:03;102396.19;;;12.26;37.33